Time;durP1;ratioP1;P1;durP2;ratioP2;P2;SDS_P1;SDS_P2;PMS_P1;PMS_P2;Temp;Humidity;BMP_temperature;BMP_pressure;BME280_temperature;BME280_humidity;BME280_pressure;Samples;Min_cycle;Max_cycle;Signal;HPM_P1;HPM_P2
2023/02/02 00:03:22;;;;;;;6.55;2.90;;;;;;;;;;20839802;28;20540;-62
2023/02/02 00:13:43;;;;;;;8.05;3.45;;;;;;;;;;20838451;28;20056;-65
2023/02/02 00:24:06;;;;;;;6.72;3.63;;;;;;;;;;20837966;28;20054;-60
2023/02/02 00:34:27;;;;;;;8.18;3.17;;;;;;;;;;20837379;28;20140;-60
2023/02/02 00:54:52;;;;;;;;;;;;;;;;;;20836363;28;20410;-60
2023/02/02 01:04:54;;;;;;;6.28;2.95;;;;;;;;;;20834232;28;19921;-63
2023/02/02 01:14:56;;;;;;;7.13;3.20;;;;;;;;;;20834640;28;20041;-63
2023/02/02 01:24:58;;;;;;;4.50;3.00;;;;;;;;;;20834241;28;20053;-63
2023/02/02 01:35:00;;;;;;;9.18;3.08;;;;;;;;;;20831592;28;20045;-64
2023/02/02 01:45:13;;;;;;;4.50;2.17;;;;;;;;;;20831530;28;20065;-62
2023/02/02 01:55:16;;;;;;;7.15;2.78;;;;;;;;;;20832258;28;20072;-61
2023/02/02 02:05:21;;;;;;;8.50;2.70;;;;;;;;;;20832748;28;20048;-59
2023/02/02 02:36:29;;;;;;;4.53;2.33;;;;;;;;;;20830868;28;20417;-59
2023/02/02 02:46:31;;;;;;;5.53;2.38;;;;;;;;;;20833278;28;20413;-61
2023/02/02 02:56:37;;;;;;;5.07;2.38;;;;;;;;;;20844134;28;20085;-58
2023/02/02 03:06:49;;;;;;;4.20;2.03;;;;;;;;;;20844910;28;20049;-60
2023/02/02 03:16:51;;;;;;;4.10;2.08;;;;;;;;;;20842522;28;20053;-61
2023/02/02 03:26:53;;;;;;;3.00;1.73;;;;;;;;;;20842245;28;20505;-59
2023/02/02 03:36:56;;;;;;;4.20;1.90;;;;;;;;;;20842374;28;20462;-59
2023/02/02 03:46:58;;;;;;;2.88;1.65;;;;;;;;;;20840064;28;20061;-59
2023/02/02 03:57:01;;;;;;;2.88;1.70;;;;;;;;;;20840266;28;20410;-59
2023/02/02 04:07:03;;;;;;;3.72;2.28;;;;;;;;;;20839925;28;20053;-62
2023/02/02 04:17:05;;;;;;;4.03;1.83;;;;;;;;;;20837727;28;20049;-63
2023/02/02 04:27:08;;;;;;;3.33;1.48;;;;;;;;;;20837590;28;20079;-61
2023/02/02 04:37:11;;;;;;;3.75;1.55;;;;;;;;;;20836643;28;20049;-62
2023/02/02 04:47:13;;;;;;;3.97;1.83;;;;;;;;;;20836415;28;20554;-63
2023/02/02 04:57:16;;;;;;;3.63;1.48;;;;;;;;;;20835082;28;20136;-61
2023/02/02 05:07:18;;;;;;;3.67;1.33;;;;;;;;;;20835125;28;20084;-64
2023/02/02 05:17:20;;;;;;;4.22;1.42;;;;;;;;;;20834293;28;20060;-63
2023/02/02 05:27:22;;;;;;;2.80;1.40;;;;;;;;;;20833923;28;20072;-59
2023/02/02 05:37:24;;;;;;;2.58;1.30;;;;;;;;;;20833877;28;20049;-59
2023/02/02 05:47:26;;;;;;;3.53;1.45;;;;;;;;;;20831954;28;20057;-59
2023/02/02 05:57:28;;;;;;;6.03;1.85;;;;;;;;;;20831054;28;20049;-60
2023/02/02 06:07:30;;;;;;;4.32;1.52;;;;;;;;;;20830612;28;20125;-63
2023/02/02 06:17:33;;;;;;;9.07;1.92;;;;;;;;;;20830320;28;20049;-61
2023/02/02 06:27:35;;;;;;;4.90;1.88;;;;;;;;;;20844571;28;20064;-63
2023/02/02 06:37:38;;;;;;;10.93;2.20;;;;;;;;;;20846895;28;20148;-60
2023/02/02 06:47:40;;;;;;;4.80;2.42;;;;;;;;;;20844682;28;20140;-61
2023/02/02 06:57:42;;;;;;;4.93;2.42;;;;;;;;;;20845311;28;20058;-61
2023/02/02 07:07:44;;;;;;;5.22;2.25;;;;;;;;;;20844523;28;20473;-61
2023/02/02 07:17:46;;;;;;;10.75;4.65;;;;;;;;;;20842441;28;20049;-62
2023/02/02 07:27:52;;;;;;;6.13;2.80;;;;;;;;;;20841829;28;20140;-60
2023/02/02 07:37:55;;;;;;;5.93;2.28;;;;;;;;;;20839854;28;20053;-60
2023/02/02 07:47:57;;;;;;;6.10;2.53;;;;;;;;;;20839686;28;20141;-60
2023/02/02 07:58:04;;;;;;;7.43;2.88;;;;;;;;;;20840551;28;20062;-62
2023/02/02 08:08:06;;;;;;;3.17;1.88;;;;;;;;;;20838534;28;20084;-63
2023/02/02 08:18:08;;;;;;;5.13;1.70;;;;;;;;;;20837924;28;20096;-61
2023/02/02 08:28:10;;;;;;;5.93;2.45;;;;;;;;;;20837775;28;20128;-64
2023/02/02 08:38:13;;;;;;;4.28;2.28;;;;;;;;;;20837528;28;20151;-62
2023/02/02 08:48:15;;;;;;;12.82;6.53;;;;;;;;;;20835831;28;20523;-64
2023/02/02 08:58:17;;;;;;;10.25;2.83;;;;;;;;;;20835072;28;20129;-61
2023/02/02 09:08:19;;;;;;;11.27;3.10;;;;;;;;;;20833825;28;20056;-60
2023/02/02 09:18:22;;;;;;;9.27;3.50;;;;;;;;;;20834489;28;20064;-59
2023/02/02 09:44:59;;;;;;;11.25;3.25;;;;;;;;;;21070462;27;20496;-63
2023/02/02 09:55:07;;;;;;;13.75;3.90;;;;;;;;;;21067708;28;20131;-62
2023/02/02 10:05:14;;;;;;;10.82;5.43;;;;;;;;;;21063949;28;20471;-63
2023/02/02 10:15:22;;;;;;;8.15;3.70;;;;;;;;;;21065717;28;20044;-63
2023/02/02 10:25:28;;;;;;;9.75;3.35;;;;;;;;;;21062031;28;20052;-63
2023/02/02 10:35:33;;;;;;;8.30;4.25;;;;;;;;;;21063263;28;20421;-62
2023/02/02 10:45:37;;;;;;;11.93;4.28;;;;;;;;;;21007405;28;20139;-65
2023/02/02 10:55:42;;;;;;;14.70;4.40;;;;;;;;;;21005406;28;20059;-63
2023/02/02 11:16:25;;;;;;;9.40;5.03;;;;;;;;;;21004615;28;20044;-63
2023/02/02 11:26:48;;;;;;;11.82;5.28;;;;;;;;;;21003615;28;20508;-62
2023/02/02 11:36:59;;;;;;;15.43;6.05;;;;;;;;;;21003351;28;20056;-64
2023/02/02 11:47:03;;;;;;;13.98;5.95;;;;;;;;;;21002706;28;20135;-63
2023/02/02 11:57:09;;;;;;;15.80;6.47;;;;;;;;;;21001146;28;20048;-63
2023/02/02 12:07:18;;;;;;;13.52;6.28;;;;;;;;;;21000535;28;20135;-63
2023/02/02 12:17:21;;;;;;;;;;;;;;;;;;21000060;28;20130;-62
2023/02/02 12:27:24;;;;;;;13.00;6.05;;;;;;;;;;20998872;28;20015;-63
2023/02/02 12:37:33;;;;;;;13.10;6.28;;;;;;;;;;20998132;28;20054;-62
2023/02/02 12:47:54;;;;;;;11.75;5.93;;;;;;;;;;20997926;28;20435;-63
2023/02/02 12:58:08;;;;;;;14.93;6.88;;;;;;;;;;20998311;28;20383;-62
2023/02/02 13:08:15;;;;;;;20.20;6.55;;;;;;;;;;20995941;28;20064;-62
2023/02/02 13:18:24;;;;;;;11.15;5.28;;;;;;;;;;20995063;28;20520;-62
2023/02/02 13:28:32;;;;;;;12.87;7.27;;;;;;;;;;20995653;28;20052;-63
2023/02/02 13:38:40;;;;;;;13.95;5.72;;;;;;;;;;20996446;28;20056;-63
2023/02/02 13:48:52;;;;;;;16.73;8.30;;;;;;;;;;20996454;28;20053;-63
2023/02/02 13:59:00;;;;;;;14.38;7.50;;;;;;;;;;20995824;28;20390;-63
2023/02/02 14:09:03;;;;;;;15.00;7.32;;;;;;;;;;20996164;28;20049;-63
2023/02/02 14:19:07;;;;;;;20.08;8.77;;;;;;;;;;21007622;28;20450;-63
2023/02/02 14:40:07;;;;;;;11.70;6.80;;;;;;;;;;21009415;28;20075;-64
2023/02/02 14:50:17;;;;;;;12.90;7.18;;;;;;;;;;21008511;28;20407;-64
2023/02/02 15:00:21;;;;;;;21.60;9.60;;;;;;;;;;21007412;28;20067;-63
2023/02/02 15:10:42;;;;;;;19.95;9.40;;;;;;;;;;21005371;28;20052;-62
2023/02/02 15:20:52;;;;;;;20.80;9.07;;;;;;;;;;21005354;28;20059;-63
2023/02/02 15:31:16;;;;;;;18.20;8.20;;;;;;;;;;21004939;28;20056;-63
2023/02/02 15:41:19;;;;;;;13.77;7.72;;;;;;;;;;21004527;28;20075;-62
2023/02/02 15:51:21;;;;;;;13.70;7.50;;;;;;;;;;21003802;28;20053;-62
2023/02/02 16:01:24;;;;;;;18.45;7.65;;;;;;;;;;21003148;28;20051;-63
2023/02/02 16:11:29;;;;;;;20.45;7.82;;;;;;;;;;21002553;28;20049;-64
2023/02/02 16:21:59;;;;;;;13.65;7.72;;;;;;;;;;21001659;28;20417;-64
2023/02/02 16:32:03;;;;;;;32.25;15.48;;;;;;;;;;20998879;28;20056;-64
2023/02/02 16:42:22;;;;;;;18.58;8.48;;;;;;;;;;20996285;28;20502;-64
2023/02/02 16:52:24;;;;;;;17.93;7.73;;;;;;;;;;20998687;28;20048;-64
2023/02/02 17:02:31;;;;;;;14.85;8.02;;;;;;;;;;20997063;28;20041;-64
2023/02/02 17:12:33;;;;;;;23.77;11.15;;;;;;;;;;20997671;28;20135;-63
2023/02/02 17:22:37;;;;;;;24.38;9.40;;;;;;;;;;20997056;28;20053;-63
2023/02/02 17:32:39;;;;;;;17.30;8.32;;;;;;;;;;20995799;28;20056;-62
2023/02/02 17:42:42;;;;;;;16.65;8.32;;;;;;;;;;20994801;28;20102;-62
2023/02/02 17:52:47;;;;;;;16.60;8.32;;;;;;;;;;21005707;28;20049;-64
2023/02/02 18:02:50;;;;;;;16.02;7.97;;;;;;;;;;21011019;28;20044;-62
2023/02/02 18:12:52;;;;;;;20.73;10.55;;;;;;;;;;21010560;28;20048;-64
2023/02/02 18:22:54;;;;;;;28.00;10.45;;;;;;;;;;21009766;28;20478;-62
2023/02/02 18:32:57;;;;;;;22.75;10.93;;;;;;;;;;21007722;28;20051;-64
2023/02/02 18:43:01;;;;;;;23.02;11.23;;;;;;;;;;21007417;28;20088;-62
2023/02/02 18:53:03;;;;;;;24.60;10.82;;;;;;;;;;21006218;28;20052;-63
2023/02/02 19:03:06;;;;;;;24.85;10.95;;;;;;;;;;21006200;28;20071;-64
2023/02/02 19:13:18;;;;;;;41.40;16.45;;;;;;;;;;21006021;28;20063;-64
2023/02/02 19:23:24;;;;;;;26.33;10.82;;;;;;;;;;21005211;28;20052;-64
2023/02/02 19:33:49;;;;;;;23.02;8.45;;;;;;;;;;21003313;28;20501;-63
2023/02/02 19:43:54;;;;;;;20.50;9.00;;;;;;;;;;21002306;28;20055;-62
2023/02/02 19:53:58;;;;;;;15.63;7.32;;;;;;;;;;21002818;28;20059;-64
2023/02/02 20:04:02;;;;;;;14.07;5.57;;;;;;;;;;20999687;28;20084;-63
2023/02/02 20:14:10;;;;;;;11.20;5.30;;;;;;;;;;21001312;28;20052;-64
2023/02/02 20:24:18;;;;;;;10.63;4.47;;;;;;;;;;21001110;28;20083;-63
2023/02/02 20:34:28;;;;;;;7.68;3.90;;;;;;;;;;20998331;28;20474;-62
2023/02/02 20:44:31;;;;;;;11.35;3.83;;;;;;;;;;20997489;28;20086;-63
2023/02/02 20:54:34;;;;;;;11.60;4.20;;;;;;;;;;20996679;28;20055;-64
2023/02/02 21:04:37;;;;;;;7.15;3.75;;;;;;;;;;20997001;28;20048;-65
2023/02/02 21:14:40;;;;;;;6.38;3.33;;;;;;;;;;20996248;28;20056;-63
2023/02/02 21:24:43;;;;;;;8.57;3.28;;;;;;;;;;20995529;28;20048;-63
2023/02/02 21:34:45;;;;;;;6.80;3.05;;;;;;;;;;20995410;28;20088;-64
2023/02/02 21:44:48;;;;;;;9.98;3.65;;;;;;;;;;20994936;28;20078;-63
2023/02/02 21:54:50;;;;;;;9.25;4.38;;;;;;;;;;20995917;28;20048;-64
2023/02/02 22:04:54;;;;;;;9.77;4.90;;;;;;;;;;20995682;28;20048;-64
2023/02/02 22:15:00;;;;;;;9.85;4.38;;;;;;;;;;20996262;28;20128;-65
2023/02/02 22:25:10;;;;;;;10.27;4.00;;;;;;;;;;20994215;28;20047;-62
2023/02/02 22:35:13;;;;;;;8.20;3.65;;;;;;;;;;20998585;28;20123;-61
2023/02/02 22:45:15;;;;;;;7.95;4.30;;;;;;;;;;21007511;28;20521;-62
2023/02/02 22:55:19;;;;;;;10.18;4.45;;;;;;;;;;21007786;28;20066;-62
2023/02/02 23:05:22;;;;;;;7.55;4.22;;;;;;;;;;21008996;28;20052;-63
2023/02/02 23:15:25;;;;;;;10.32;4.60;;;;;;;;;;21007661;28;20044;-63
2023/02/02 23:25:27;;;;;;;11.43;4.95;;;;;;;;;;21005761;28;20041;-62
2023/02/02 23:35:29;;;;;;;8.73;4.60;;;;;;;;;;21005673;28;20045;-63
2023/02/02 23:45:32;;;;;;;6.00;3.55;;;;;;;;;;21003454;28;20166;-64
2023/02/02 23:55:34;;;;;;;10.82;4.18;;;;;;;;;;20986037;28;20076;-63
